Tram, KY (41663)

11:30 AM EDT on October 30, 2014 (GMT -0400)
Quail Ridge | Change Station
CLOSE
Current Station
Personal Weather Station
Location: Pikeville, KY
Elevation: 778 ft
Nearby Weather Stations
Active Advisory: Special Statement

Elev 778 ft 37.50 °N, 82.54 °W | Updated 4 seconds ago

Partly Cloudy
Partly Cloudy
50.8 °F
Feels Like 50.8 °F
N
0.0
Wind Variable Wind from ENE
Gusts 0.0 mph

Today
High -- | Low -- °F
--% Chance of Precip.
Yesterday
High -- | Low -- °F
Precip. -- in
7:53 AM 6:34 PM
Waxing Crescent, 45% visible
Pressure 30.16 in
Visibility 10.0 miles
Clouds Overcast 3900 ft
Dew Point 43 °F
Humidity 75%
Rainfall 4.51 in
Snow Depth Not available.
UV 1 out of 12
Pollen .30 out of 12
Air Quality Not available.
Flu Activity Not available.
METAR KSJS 301515Z AUTO 02003KT 10SM OVC039 08/03 A3016 RMK AO2 T00840029

More Conditions Fewer Conditions

Pressure 30.16 in
Visibility 10.0 miles
Clouds Overcast 3900 ft
Dew Point 43 °F
Humidity 75%
Rainfall 4.51 in
Snow Depth Not available.
UV 1 out of 12
Pollen .30 out of 12
Air Quality Not available.
Flu Activity Not available.
METAR KSJS 301515Z AUTO 02003KT 10SM OVC039 08/03 A3016 RMK AO2 T00840029

More Conditions Fewer Conditions

10-Day Weather Forecast

Almanac

Astronomy

Oct. 30, 2014 Rise Set
Actual Time
Civil Twilight
Nautical Twilight
Astronomical Twilight
Moon
Length of Visible Light
Length of Day
Tomorrow will be .
, % of the Moon is Illuminated

Today's Extremes

State Highs State Lows

Community

WunderPhotos

Upload Photos

1,766,387 photos uploaded!

WunderBlogs® & News

Nearby

Air Quality

  Air Quality AQ Index Pollutant
Not available.

Snow Depth

Station Depth Elevation

Earthquake Activity

City Distance Mag. Time & Date
Minimum magnitude displayed is 2.5.

Coastal Water Temperatures

Place Temperature

Nearby Weather Stations